createdAt,value
2023-04-09T00:01:39.401Z,98.01
2023-04-09T00:06:45.238Z,98.64
2023-04-09T00:11:48.703Z,98.83
2023-04-09T00:16:55.631Z,98.68
2023-04-09T00:21:59.034Z,98.45
2023-04-09T00:27:02.553Z,98.29
2023-04-09T00:32:06.517Z,98.51
2023-04-09T00:37:09.962Z,98.35
2023-04-09T00:42:13.307Z,98.70
2023-04-09T00:47:32.142Z,98.87
2023-04-09T00:52:36.166Z,98.93
2023-04-09T00:57:39.618Z,99.69
2023-04-09T01:03:01.199Z,99.86
2023-04-09T01:08:19.636Z,99.98
2023-04-09T01:13:59.385Z,100.00
2023-04-09T01:19:39.645Z,100.00
2023-04-09T01:25:00.645Z,100.00
2023-04-09T01:30:15.189Z,100.00
2023-04-09T01:35:21.349Z,100.00
2023-04-09T01:40:25.218Z,100.00
2023-04-09T01:45:31.748Z,100.00
2023-04-09T01:50:45.729Z,100.00
2023-04-09T01:55:49.287Z,100.00
2023-04-09T02:00:57.115Z,100.00
2023-04-09T02:06:21.373Z,100.00
2023-04-09T02:11:46.630Z,100.00
2023-04-09T02:16:50.171Z,100.00
2023-04-09T02:21:53.479Z,100.00
2023-04-09T02:26:56.796Z,100.00
2023-04-09T02:32:00.075Z,100.00
2023-04-09T02:37:23.784Z,100.00
2023-04-09T02:42:27.564Z,100.00
2023-04-09T02:47:31.529Z,100.00
2023-04-09T02:52:55.145Z,100.00
2023-04-09T02:58:21.099Z,100.00
2023-04-09T03:03:24.650Z,100.00
2023-04-09T03:08:31.224Z,100.00
2023-04-09T03:13:35.522Z,100.00
2023-04-09T03:18:38.989Z,100.00
2023-04-09T03:23:43.009Z,100.00
2023-04-09T03:28:49.880Z,100.00
2023-04-09T03:33:53.622Z,100.00
2023-04-09T03:39:26.650Z,100.00
2023-04-09T03:44:32.709Z,100.00
2023-04-09T03:49:41.082Z,100.00
2023-04-09T03:54:54.576Z,100.00
2023-04-09T03:59:59.895Z,100.00
2023-04-09T04:05:04.675Z,100.00
2023-04-09T04:10:12.230Z,100.00
2023-04-09T04:15:20.367Z,100.00
2023-04-09T04:20:33.377Z,100.00
2023-04-09T04:25:44.851Z,100.00
2023-04-09T04:30:54.342Z,100.00
2023-04-09T04:36:09.554Z,100.00
2023-04-09T04:41:32.192Z,100.00
2023-04-09T04:47:07.973Z,100.00
2023-04-09T04:52:11.752Z,100.00
2023-04-09T04:57:17.125Z,100.00
2023-04-09T05:02:20.706Z,100.00
2023-04-09T05:07:50.539Z,100.00
2023-04-09T05:12:59.922Z,100.00
2023-04-09T05:18:09.220Z,100.00
2023-04-09T05:23:23.997Z,100.00
2023-04-09T05:29:02.091Z,100.00
2023-04-09T05:34:06.411Z,100.00
2023-04-09T05:39:27.813Z,100.00
2023-04-09T05:44:32.332Z,100.00
2023-04-09T05:49:56.221Z,100.00
2023-04-09T05:54:59.646Z,100.00
2023-04-09T06:00:15.399Z,100.00
2023-04-09T06:05:23.243Z,100.00
2023-04-09T06:10:26.867Z,100.00
2023-04-09T06:15:30.541Z,100.00
2023-04-09T06:20:34.008Z,100.00
2023-04-09T06:25:40.816Z,100.00
2023-04-09T06:30:44.526Z,100.00
2023-04-09T06:35:51.985Z,100.00
2023-04-09T06:40:57.949Z,100.00
2023-04-09T06:46:01.310Z,99.45
2023-04-09T06:51:07.521Z,99.21
2023-04-09T06:56:11.373Z,98.72
2023-04-09T07:01:15.177Z,98.15
2023-04-09T07:06:18.960Z,98.25
2023-04-09T07:11:29.785Z,96.94
2023-04-09T07:16:33.468Z,95.82
2023-04-09T07:21:36.964Z,93.10
2023-04-09T07:26:42.947Z,93.07
2023-04-09T07:31:52.432Z,92.92
2023-04-09T07:36:56.120Z,91.95
2023-04-09T07:42:03.024Z,92.59
2023-04-09T07:47:08.042Z,91.80
2023-04-09T07:52:11.725Z,90.25
2023-04-09T07:57:15.539Z,89.31
2023-04-09T08:02:19.350Z,88.84
2023-04-09T08:07:23.106Z,87.52
2023-04-09T08:12:26.675Z,85.86
2023-04-09T08:17:33.255Z,86.29
2023-04-09T08:22:36.957Z,86.74
2023-04-09T08:27:40.795Z,86.97
2023-04-09T08:32:56.409Z,86.66
2023-04-09T08:38:08.488Z,85.48
2023-04-09T08:43:19.206Z,85.43
2023-04-09T08:48:23.892Z,84.24
2023-04-09T08:53:27.964Z,83.52
2023-04-09T08:58:31.745Z,82.86
2023-04-09T09:03:54.125Z,81.46
2023-04-09T09:09:01.727Z,80.14
2023-04-09T09:14:09.769Z,79.78
2023-04-09T09:19:25.723Z,78.78
2023-04-09T09:24:34.060Z,77.80
2023-04-09T09:29:42.031Z,77.29
2023-04-09T09:34:58.520Z,75.93
2023-04-09T09:40:01.981Z,73.53
2023-04-09T09:45:18.104Z,74.33
2023-04-09T09:50:25.380Z,74.52
2023-04-09T09:55:31.686Z,74.50
2023-04-09T10:00:37.532Z,74.68
2023-04-09T10:05:42.276Z,74.38
2023-04-09T10:10:47.039Z,73.27
2023-04-09T10:15:52.274Z,72.82
2023-04-09T10:21:05.903Z,72.28
2023-04-09T10:26:09.296Z,71.47
2023-04-09T10:31:12.742Z,70.69
2023-04-09T10:36:20.448Z,69.80
2023-04-09T10:41:28.810Z,69.84
2023-04-09T10:46:41.071Z,70.14
2023-04-09T10:52:19.211Z,69.81
2023-04-09T10:57:23.305Z,68.89
2023-04-09T11:02:38.811Z,69.05
2023-04-09T11:07:47.868Z,69.37
2023-04-09T11:12:51.185Z,68.57
2023-04-09T11:17:54.733Z,68.44
2023-04-09T11:23:00.045Z,68.32
2023-04-09T11:28:05.310Z,67.39
2023-04-09T11:33:19.788Z,66.83
2023-04-09T11:38:24.088Z,66.76
2023-04-09T11:43:36.566Z,67.42
2023-04-09T11:48:43.285Z,67.22
2023-04-09T11:53:49.443Z,67.20
2023-04-09T11:58:55.445Z,67.27
2023-04-09T12:04:00.208Z,67.42
2023-04-09T12:09:03.957Z,67.13
2023-04-09T12:14:07.753Z,66.81
2023-04-09T12:19:13.018Z,66.62
2023-04-09T12:24:18.522Z,66.59
2023-04-09T12:29:22.021Z,66.13
2023-04-09T12:34:27.403Z,65.03
2023-04-09T12:39:32.571Z,64.73
2023-04-09T12:44:37.359Z,65.19
2023-04-09T12:49:45.321Z,65.08
2023-04-09T12:54:48.872Z,65.26
2023-04-09T12:59:52.379Z,64.64
2023-04-09T13:04:55.669Z,65.31
2023-04-09T13:09:58.989Z,65.04
2023-04-09T13:15:02.459Z,64.24
2023-04-09T13:20:09.471Z,63.97
2023-04-09T13:25:14.832Z,63.94
2023-04-09T13:30:18.867Z,63.33
2023-04-09T13:35:22.485Z,63.92
2023-04-09T13:40:26.076Z,64.68
2023-04-09T13:45:29.479Z,65.70
2023-04-09T13:50:33.649Z,67.13
2023-04-09T13:55:37.034Z,67.62
2023-04-09T14:00:40.505Z,66.87
2023-04-09T14:05:43.847Z,66.52
2023-04-09T14:10:56.920Z,66.93
2023-04-09T14:16:03.354Z,68.29
2023-04-09T14:21:10.236Z,69.33
2023-04-09T14:26:14.333Z,69.17
2023-04-09T14:31:21.637Z,69.48
2023-04-09T14:36:25.108Z,69.20
2023-04-09T14:41:28.556Z,68.66
2023-04-09T14:46:40.988Z,68.00
2023-04-09T14:51:44.350Z,68.09
2023-04-09T14:56:47.904Z,67.45
2023-04-09T15:01:51.759Z,67.92
2023-04-09T15:06:55.230Z,67.95
2023-04-09T15:11:58.595Z,67.80
2023-04-09T15:17:01.958Z,67.67
2023-04-09T15:22:05.338Z,67.31
2023-04-09T15:27:08.739Z,67.61
2023-04-09T15:32:12.130Z,67.57
2023-04-09T15:37:15.679Z,67.73
2023-04-09T15:42:22.876Z,68.18
2023-04-09T15:47:29.604Z,68.48
2023-04-09T15:52:34.044Z,68.46
2023-04-09T15:57:38.773Z,68.68
2023-04-09T16:02:51.180Z,69.10
2023-04-09T16:07:55.264Z,69.20
2023-04-09T16:12:59.894Z,68.64
2023-04-09T16:18:04.241Z,68.32
2023-04-09T16:23:10.334Z,68.22
2023-04-09T16:28:14.810Z,67.90
2023-04-09T16:33:18.674Z,67.39
2023-04-09T16:38:23.673Z,67.10
2023-04-09T16:43:27.208Z,67.23
2023-04-09T16:48:31.276Z,67.17
2023-04-09T16:53:43.230Z,67.22
2023-04-09T16:58:47.054Z,67.85
2023-04-09T17:03:51.264Z,68.47
2023-04-09T17:08:54.777Z,69.09
2023-04-09T17:14:10.285Z,69.64
2023-04-09T17:19:14.038Z,70.18
2023-04-09T17:24:17.390Z,70.56
2023-04-09T17:29:26.059Z,70.89
2023-04-09T17:34:29.722Z,71.46
2023-04-09T17:39:56.525Z,72.10
2023-04-09T17:45:00.251Z,72.42
2023-04-09T17:50:04.514Z,72.71
2023-04-09T17:55:12.449Z,72.96
2023-04-09T18:00:19.301Z,73.58
2023-04-09T18:05:26.190Z,74.19
2023-04-09T18:10:30.342Z,74.78
2023-04-09T18:15:33.715Z,75.26
2023-04-09T18:20:37.487Z,75.88
2023-04-09T18:25:41.143Z,76.31
2023-04-09T18:30:45.670Z,77.23
2023-04-09T18:35:49.109Z,77.51
2023-04-09T18:40:52.561Z,78.16
2023-04-09T18:45:57.326Z,78.82
2023-04-09T18:51:03.266Z,79.19
2023-04-09T18:56:17.066Z,79.44
2023-04-09T19:01:21.305Z,80.03
2023-04-09T19:06:25.929Z,81.11
2023-04-09T19:11:29.576Z,81.97
2023-04-09T19:16:33.149Z,81.90
2023-04-09T19:21:36.870Z,81.49
2023-04-09T19:26:41.101Z,80.85
2023-04-09T19:31:45.974Z,80.94
2023-04-09T19:36:49.425Z,80.89
2023-04-09T19:41:53.140Z,80.95
2023-04-09T19:46:56.741Z,80.63
2023-04-09T19:52:01.125Z,80.64
2023-04-09T19:57:04.949Z,80.46
2023-04-09T20:02:08.513Z,80.48
2023-04-09T20:07:12.046Z,80.42
2023-04-09T20:12:15.743Z,80.65
2023-04-09T20:17:38.634Z,81.37
2023-04-09T20:22:43.529Z,81.45
2023-04-09T20:27:47.179Z,81.96
2023-04-09T20:32:50.911Z,82.21
2023-04-09T20:37:55.325Z,82.46
2023-04-09T20:42:59.562Z,83.06
2023-04-09T20:48:15.989Z,83.45
2023-04-09T20:53:37.035Z,84.06
2023-04-09T20:58:40.598Z,84.46
2023-04-09T21:04:10.670Z,84.47
2023-04-09T21:09:36.600Z,84.90
2023-04-09T21:14:43.494Z,85.41
2023-04-09T21:19:51.685Z,85.41
2023-04-09T21:25:18.367Z,86.10
2023-04-09T21:30:24.188Z,86.09
2023-04-09T21:35:27.725Z,86.99
2023-04-09T21:40:31.877Z,88.00
2023-04-09T21:45:38.712Z,88.67
2023-04-09T21:50:42.398Z,87.80
2023-04-09T21:55:48.637Z,89.81
2023-04-09T22:00:52.382Z,90.28
2023-04-09T22:05:57.842Z,89.15
2023-04-09T22:11:05.514Z,88.06
2023-04-09T22:16:11.751Z,90.61
2023-04-09T22:21:16.569Z,91.19
2023-04-09T22:26:20.312Z,89.57
2023-04-09T22:31:23.993Z,89.68
2023-04-09T22:36:27.552Z,89.63
2023-04-09T22:41:31.017Z,89.62
2023-04-09T22:46:34.874Z,89.97
2023-04-09T22:51:40.172Z,90.11
2023-04-09T22:56:45.373Z,90.25
2023-04-09T23:01:49.084Z,90.15
2023-04-09T23:06:52.405Z,90.13
2023-04-09T23:11:56.967Z,90.90
2023-04-09T23:17:00.375Z,90.36
2023-04-09T23:22:24.447Z,90.30
2023-04-09T23:27:28.966Z,89.97
2023-04-09T23:32:32.499Z,89.71
2023-04-09T23:37:56.607Z,89.59
2023-04-09T23:43:00.079Z,89.46
2023-04-09T23:48:09.298Z,89.76
2023-04-09T23:53:33.089Z,90.57
2023-04-09T23:58:37.052Z,88.47
